Time;durP1;ratioP1;P1;durP2;ratioP2;P2;SDS_P1;SDS_P2;PMS_P1;PMS_P2;Temp;Humidity;BMP_temperature;BMP_pressure;BME280_temperature;BME280_humidity;BME280_pressure;Samples;Min_cycle;Max_cycle;Signal;HPM_P1;HPM_P2
2023/01/31 00:00:11;;;;;;;19.70;11.70;;;;;;;6.21;56.56;94114.88;5090827;28;20633;-49
2023/01/31 00:02:38;;;;;;;22.10;13.23;;;;;;;6.11;56.47;94108.97;5091120;28;20178;-50
2023/01/31 00:05:05;;;;;;;20.37;12.60;;;;;;;6.22;56.49;94126.66;5091445;28;20254;-49
2023/01/31 00:07:32;;;;;;;20.73;11.67;;;;;;;6.23;56.50;94135.88;5090975;28;20313;-48
2023/01/31 00:09:59;;;;;;;17.30;11.77;;;;;;;6.24;56.48;94134.16;5090364;28;20182;-47
2023/01/31 00:12:27;;;;;;;21.30;12.30;;;;;;;6.25;56.54;94128.94;5091187;28;20182;-47
2023/01/31 00:14:54;;;;;;;19.93;12.67;;;;;;;6.25;56.61;94125.59;5092190;28;20270;-50
2023/01/31 00:17:21;;;;;;;19.73;11.57;;;;;;;6.24;56.45;94122.25;5093995;28;20186;-49
2023/01/31 00:19:47;;;;;;;21.40;13.13;;;;;;;6.23;56.39;94124.94;5094108;28;20194;-48
2023/01/31 00:22:14;;;;;;;25.70;13.20;;;;;;;6.23;56.45;94135.88;5094380;28;20196;-49
2023/01/31 00:24:41;;;;;;;19.50;11.83;;;;;;;6.24;56.54;94131.63;5090682;28;20275;-48
2023/01/31 00:27:08;;;;;;;21.73;12.73;;;;;;;6.22;56.58;94124.13;5090989;28;20232;-51
2023/01/31 00:29:36;;;;;;;17.37;11.80;;;;;;;6.10;56.49;94109.91;5091306;28;20237;-49
2023/01/31 00:32:03;;;;;;;19.63;11.70;;;;;;;6.22;56.53;94126.66;5090073;28;20186;-48
2023/01/31 00:34:30;;;;;;;19.93;12.60;;;;;;;6.22;56.54;94129.22;5090970;28;20276;-49
2023/01/31 00:36:56;;;;;;;17.40;11.27;;;;;;;6.19;56.49;94121.03;5090297;28;20560;-50
2023/01/31 00:39:23;;;;;;;18.80;11.90;;;;;;;6.24;56.53;94129.06;5090993;28;20200;-49
2023/01/31 00:41:50;;;;;;;17.53;11.03;;;;;;;6.24;56.57;94129.88;5091589;28;20182;-50
2023/01/31 00:44:17;;;;;;;16.93;11.30;;;;;;;6.24;56.60;94131.63;5096064;28;20242;-51
2023/01/31 00:46:45;;;;;;;19.73;11.43;;;;;;;6.26;56.53;94128.03;5095457;28;20224;-51
2023/01/31 00:49:12;;;;;;;23.10;12.67;;;;;;;6.26;56.66;94125.50;5092894;28;20630;-49
2023/01/31 00:51:38;;;;;;;19.73;11.40;;;;;;;6.27;56.60;94128.84;5090316;28;20270;-49
2023/01/31 00:54:05;;;;;;;21.53;12.50;;;;;;;6.26;56.71;94130.56;5090371;28;20189;-48
2023/01/31 00:56:32;;;;;;;19.27;10.70;;;;;;;6.25;56.63;94112.91;5090246;28;20194;-48
2023/01/31 00:58:59;;;;;;;18.27;12.07;;;;;;;6.25;56.28;94117.97;5090449;28;20182;-50
2023/01/31 01:01:27;;;;;;;18.23;11.97;;;;;;;6.25;56.67;94110.38;5088513;28;20194;-48
2023/01/31 01:03:56;;;;;;;20.63;11.47;;;;;;;6.27;56.65;94126.28;5077802;28;20524;-49
2023/01/31 01:06:23;;;;;;;17.50;10.77;;;;;;;6.27;56.52;94136.44;5089666;28;20213;-49
2023/01/31 01:08:50;;;;;;;18.67;11.33;;;;;;;6.27;56.58;94151.69;5090389;28;20193;-49
2023/01/31 01:11:19;;;;;;;19.20;12.57;;;;;;;6.10;56.69;94112.44;5089958;28;20189;-48
2023/01/31 01:13:46;;;;;;;19.77;12.10;;;;;;;6.21;56.72;94127.56;5089776;28;20186;-48
2023/01/31 01:16:15;;;;;;;19.20;11.90;;;;;;;6.28;56.66;94140.59;5089281;28;20194;-48
2023/01/31 01:18:45;;;;;;;18.87;10.77;;;;;;;6.27;56.74;94139.00;5089816;28;20208;-50
2023/01/31 01:21:16;;;;;;;15.87;10.03;;;;;;;6.27;56.81;94136.44;5089872;28;20276;-48
2023/01/31 01:23:43;;;;;;;16.47;11.07;;;;;;;6.26;56.71;94133.13;5089555;28;20651;-47
2023/01/31 01:26:14;;;;;;;16.60;10.67;;;;;;;6.28;56.66;94138.06;5089171;28;20186;-49
2023/01/31 01:28:41;;;;;;;17.57;12.07;;;;;;;6.20;56.66;94115.81;5089476;28;20249;-48
2023/01/31 01:31:09;;;;;;;15.10;10.30;;;;;;;6.29;56.51;94120.13;5089464;28;20573;-48
2023/01/31 01:33:36;;;;;;;16.27;9.93;;;;;;;6.30;56.45;94113.31;5089184;28;20284;-48
2023/01/31 01:36:05;;;;;;;20.97;11.43;;;;;;;6.32;56.42;94111.47;5089417;28;20181;-50
2023/01/31 01:38:34;;;;;;;17.63;10.17;;;;;;;6.35;56.24;94115.47;5089091;28;20193;-50
2023/01/31 01:41:01;;;;;;;16.17;9.73;;;;;;;6.36;56.20;94117.13;5088962;28;20178;-50
2023/01/31 01:43:43;;;;;;;17.97;9.87;;;;;;;6.39;55.95;94111.75;5089111;28;20231;-53
2023/01/31 01:46:13;;;;;;;14.30;8.83;;;;;;;6.40;55.78;94108.31;5089022;28;20579;-49
2023/01/31 01:48:42;;;;;;;11.77;8.33;;;;;;;6.43;55.76;94115.66;5089432;28;20182;-50
2023/01/31 01:51:13;;;;;;;15.90;8.80;;;;;;;6.45;55.53;94116.34;5089325;28;20193;-48
2023/01/31 01:53:44;;;;;;;12.60;8.10;;;;;;;6.44;55.33;94117.28;5088446;28;20190;-48
2023/01/31 01:56:16;;;;;;;10.10;6.67;;;;;;;6.50;55.24;94111.69;5088937;28;20193;-48
2023/01/31 01:58:48;;;;;;;12.80;7.80;;;;;;;6.51;54.97;94113.28;5089031;28;20642;-48
2023/01/31 02:01:15;;;;;;;11.80;7.13;;;;;;;6.52;54.95;94115.72;5088938;28;20220;-48
2023/01/31 02:03:45;;;;;;;9.33;6.93;;;;;;;6.54;54.96;94110.50;5089180;28;20273;-49
2023/01/31 02:06:12;;;;;;;12.10;7.67;;;;;;;6.53;54.72;94117.31;5089338;28;20193;-48
2023/01/31 02:08:43;;;;;;;13.13;7.67;;;;;;;6.57;54.60;94117.09;5088733;28;20228;-49
2023/01/31 02:11:18;;;;;;;12.87;7.83;;;;;;;6.58;54.69;94119.47;5089166;28;20677;-47
2023/01/31 02:13:47;;;;;;;9.90;6.00;;;;;;;6.58;54.36;94131.38;5088429;28;20776;-50
2023/01/31 02:16:15;;;;;;;10.03;7.23;;;;;;;6.43;54.22;94105.50;5088968;28;20735;-48
2023/01/31 02:18:43;;;;;;;9.60;6.83;;;;;;;6.58;54.21;94124.56;5089118;28;20198;-49
2023/01/31 02:21:48;;;;;;;10.23;6.70;;;;;;;6.59;54.09;94125.38;5089284;28;20197;-51
2023/01/31 02:24:57;;;;;;;9.70;7.00;;;;;;;6.57;54.06;94120.41;5089395;28;20197;-49
2023/01/31 02:27:40;;;;;;;10.07;6.67;;;;;;;6.54;54.30;94124.00;5088737;28;20213;-48
2023/01/31 02:30:39;;;;;;;7.80;5.63;;;;;;;6.54;53.94;94118.13;5088758;28;20303;-50
2023/01/31 02:33:21;;;;;;;7.40;5.37;;;;;;;6.52;53.86;94130.97;5049721;28;20635;-47
2023/01/31 02:35:58;;;;;;;9.80;7.00;;;;;;;6.52;53.72;94130.97;5050288;28;20676;-49
2023/01/31 02:38:38;;;;;;;10.20;6.07;;;;;;;6.52;53.81;94130.16;5050052;28;20281;-49
2023/01/31 02:41:16;;;;;;;9.83;6.13;;;;;;;6.52;53.55;94130.16;5032534;28;20729;-48
2023/01/31 02:46:46;;;;;;;8.27;6.00;;;;;;;6.53;53.60;94134.31;5049941;28;20601;-49
2023/01/31 02:49:33;;;;;;;9.00;5.87;;;;;;;6.53;53.54;94130.03;5050023;28;20179;-48
2023/01/31 02:52:18;;;;;;;9.07;5.73;;;;;;;6.48;53.82;94126.28;5049397;28;20222;-48
2023/01/31 02:57:38;;;;;;;8.80;5.27;;;;;;;6.52;53.62;94151.28;5049811;28;20272;-48
2023/01/31 03:00:08;;;;;;;12.07;6.47;;;;;;;6.56;53.49;94154.34;5049856;28;20258;-47
2023/01/31 03:02:35;;;;;;;8.47;5.43;;;;;;;6.56;53.63;94167.06;5049533;28;20187;-49
2023/01/31 03:05:03;;;;;;;7.93;5.73;;;;;;;6.57;53.57;94173.75;5049904;28;20202;-49
2023/01/31 03:07:33;;;;;;;6.57;5.50;;;;;;;6.57;53.53;94172.97;5049117;28;20218;-51
2023/01/31 03:10:13;;;;;;;8.87;5.90;;;;;;;6.55;53.61;94175.59;5078855;28;20196;-51
2023/01/31 03:12:51;;;;;;;8.27;5.40;;;;;;;6.55;53.64;94190.84;5091872;28;20197;-48
2023/01/31 03:18:30;;;;;;;9.37;6.20;;;;;;;6.54;53.69;94199.41;5092310;28;20730;-51
2023/01/31 03:21:04;;;;;;;8.47;5.63;;;;;;;6.53;53.58;94200.34;5091741;28;20231;-51
2023/01/31 03:23:36;;;;;;;10.60;5.97;;;;;;;6.26;53.79;94150.88;5092156;28;20190;-50
2023/01/31 03:26:04;;;;;;;10.00;6.47;;;;;;;6.51;53.67;94192.84;5092117;28;20182;-49
2023/01/31 03:28:35;;;;;;;7.60;5.73;;;;;;;6.51;53.76;94204.72;5091943;28;20282;-49
2023/01/31 03:31:07;;;;;;;7.67;5.60;;;;;;;6.48;53.89;94210.88;5092033;28;20181;-51
2023/01/31 03:33:37;;;;;;;8.37;5.63;;;;;;;6.50;53.88;94210.75;5092204;28;20633;-48
2023/01/31 03:36:12;;;;;;;8.63;5.23;;;;;;;6.50;54.03;94216.63;5092363;28;20193;-48
2023/01/31 03:38:49;;;;;;;7.60;5.50;;;;;;;6.51;54.12;94232.66;5091959;28;20201;-48
2023/01/31 03:41:24;;;;;;;7.43;5.37;;;;;;;6.53;53.89;94238.44;5091740;28;20182;-47
2023/01/31 03:43:59;;;;;;;7.57;5.57;;;;;;;6.53;54.00;94238.44;5090526;28;20193;-49
2023/01/31 03:46:32;;;;;;;6.00;5.30;;;;;;;6.56;54.17;94253.41;5091648;28;20242;-50
2023/01/31 03:49:07;;;;;;;8.30;5.70;;;;;;;6.56;54.27;94250.88;5091770;28;20221;-51
2023/01/31 03:51:40;;;;;;;8.80;5.77;;;;;;;6.58;54.35;94246.50;5091947;28;20190;-48
2023/01/31 03:54:11;;;;;;;8.20;5.80;;;;;;;6.59;54.40;94237.94;5091882;28;20200;-48
2023/01/31 03:56:42;;;;;;;10.73;5.83;;;;;;;6.60;54.33;94246.38;5091189;28;20258;-47
2023/01/31 03:59:14;;;;;;;9.37;6.50;;;;;;;6.42;54.57;94225.81;5090953;28;20198;-48
2023/01/31 04:01:48;;;;;;;10.33;6.10;;;;;;;6.51;54.58;94235.22;5091417;28;20186;-47
2023/01/31 04:04:19;;;;;;;9.20;6.03;;;;;;;6.60;54.71;94253.97;5091302;28;20270;-48
2023/01/31 04:06:47;;;;;;;9.83;6.23;;;;;;;6.60;54.86;94251.44;5091947;28;20204;-48
2023/01/31 04:09:14;;;;;;;9.80;6.20;;;;;;;6.52;55.01;94234.31;5091095;28;20226;-52
2023/01/31 04:11:42;;;;;;;10.37;7.03;;;;;;;6.59;55.32;94243.03;5091044;28;20661;-50
2023/01/31 04:14:10;;;;;;;9.23;6.20;;;;;;;6.60;54.96;94259.06;5091246;28;20295;-50
2023/01/31 04:16:37;;;;;;;11.30;6.50;;;;;;;6.59;55.27;94265.09;5091398;28;20193;-51
2023/01/31 04:19:04;;;;;;;9.00;6.17;;;;;;;6.58;55.20;94253.31;5090735;28;20189;-48
2023/01/31 04:21:31;;;;;;;9.90;6.43;;;;;;;6.58;55.16;94258.41;5090935;28;20189;-48
2023/01/31 04:24:00;;;;;;;9.43;6.40;;;;;;;6.58;55.33;94255.84;5090607;28;20677;-48
2023/01/31 04:26:27;;;;;;;9.57;6.43;;;;;;;6.57;55.43;94261.88;5090387;28;20197;-51
2023/01/31 04:28:54;;;;;;;10.63;6.97;;;;;;;6.56;55.51;94265.31;5090693;28;20205;-50
2023/01/31 04:31:21;;;;;;;12.13;7.50;;;;;;;6.55;55.57;94264.50;5090912;28;20181;-49
2023/01/31 04:33:47;;;;;;;10.80;6.63;;;;;;;6.54;55.63;94276.41;5090871;28;20197;-49
2023/01/31 04:36:14;;;;;;;9.03;6.90;;;;;;;6.52;55.73;94265.59;5090675;28;20194;-49
2023/01/31 04:38:41;;;;;;;10.13;6.70;;;;;;;6.51;55.72;94269.03;5090750;28;20689;-48
2023/01/31 04:41:09;;;;;;;10.00;6.83;;;;;;;6.49;55.94;94270.09;5090300;28;20186;-47
2023/01/31 04:43:36;;;;;;;11.53;7.23;;;;;;;6.47;56.01;94272.75;5091353;28;20182;-48
2023/01/31 04:46:03;;;;;;;9.90;6.63;;;;;;;6.45;56.01;94274.63;5093449;28;20662;-51
2023/01/31 04:48:29;;;;;;;10.63;6.50;;;;;;;6.43;56.25;94284.09;5093275;28;20209;-49
2023/01/31 04:50:56;;;;;;;11.60;7.60;;;;;;;6.43;56.36;94278.19;5090836;28;20628;-48
2023/01/31 04:53:23;;;;;;;12.33;7.53;;;;;;;6.42;56.38;94274.06;5090589;28;20197;-49
2023/01/31 04:55:50;;;;;;;10.40;7.67;;;;;;;6.40;56.73;94278.47;5089881;28;20205;-48
2023/01/31 04:58:18;;;;;;;8.83;6.23;;;;;;;6.35;56.50;94278.00;5090824;28;20194;-50
2023/01/31 05:00:45;;;;;;;11.27;7.57;;;;;;;6.35;56.55;94272.91;5090372;28;20246;-49
2023/01/31 05:03:12;;;;;;;9.97;7.13;;;;;;;6.37;56.57;94274.41;5090514;28;20665;-48
2023/01/31 05:05:39;;;;;;;9.73;7.00;;;;;;;6.36;56.73;94280.44;5090040;28;20190;-49
2023/01/31 05:08:06;;;;;;;10.30;7.43;;;;;;;6.36;56.78;94292.34;5090103;28;20221;-48
2023/01/31 05:10:34;;;;;;;11.13;6.97;;;;;;;6.36;56.79;94284.72;5090185;28;20258;-50
2023/01/31 05:13:01;;;;;;;9.03;6.50;;;;;;;6.36;56.79;94282.19;5089764;28;20213;-50
2023/01/31 05:15:31;;;;;;;11.60;6.77;;;;;;;6.35;56.80;94273.75;5090086;28;20193;-49
2023/01/31 05:18:01;;;;;;;9.77;7.60;;;;;;;6.33;57.06;94284.94;5090048;28;20181;-52
2023/01/31 05:20:29;;;;;;;11.37;7.63;;;;;;;6.35;56.99;94301.69;5089913;28;20272;-47
2023/01/31 05:22:57;;;;;;;11.60;7.10;;;;;;;6.36;57.00;94297.41;5089683;28;20692;-49
2023/01/31 05:25:24;;;;;;;12.70;6.97;;;;;;;6.34;57.08;94301.78;5089841;28;20549;-51
2023/01/31 05:27:50;;;;;;;10.17;7.53;;;;;;;6.36;57.12;94297.41;5089704;28;20308;-48
2023/01/31 05:30:18;;;;;;;10.50;7.00;;;;;;;6.32;57.16;94291.75;5089595;28;20246;-47
2023/01/31 05:32:48;;;;;;;11.20;7.07;;;;;;;6.35;57.30;94300.84;5089629;28;20186;-50
2023/01/31 05:35:15;;;;;;;7.97;6.47;;;;;;;6.35;57.13;94306.75;5089816;28;20220;-49
2023/01/31 05:37:43;;;;;;;8.60;6.07;;;;;;;6.34;57.05;94296.72;5089239;28;20197;-49
2023/01/31 05:40:11;;;;;;;10.37;6.70;;;;;;;6.38;57.11;94296.34;5089918;28;20190;-49
2023/01/31 05:42:38;;;;;;;10.97;7.13;;;;;;;6.39;57.29;94308.13;5089498;28;20186;-48
2023/01/31 05:45:06;;;;;;;11.50;6.73;;;;;;;6.44;60.55;94290.78;5089199;28;20221;-48
2023/01/31 05:47:33;;;;;;;12.90;5.83;;;;;;;7.24;92.33;94297.78;5089112;28;20197;-48
2023/01/31 05:50:01;;;;;;;13.13;5.87;;;;;;;7.65;85.06;94305.47;5089359;28;20258;-48
2023/01/31 05:52:28;;;;;;;8.33;5.87;;;;;;;7.73;80.43;94311.53;5089328;28;20229;-49
2023/01/31 05:54:55;;;;;;;8.90;5.23;;;;;;;7.74;76.74;94312.31;5089156;28;20213;-51
2023/01/31 05:57:22;;;;;;;8.90;5.17;;;;;;;7.54;74.91;94294.44;5090051;28;20269;-49
2023/01/31 05:59:49;;;;;;;12.10;5.90;;;;;;;7.66;73.88;94312.97;5089415;28;20204;-50
2023/01/31 06:02:15;;;;;;;12.77;6.30;;;;;;;7.61;73.54;94317.63;5089304;28;20718;-49
2023/01/31 06:04:42;;;;;;;10.40;6.03;;;;;;;7.57;73.08;94333.28;5089069;28;20185;-50
2023/01/31 06:07:10;;;;;;;9.77;6.13;;;;;;;7.51;72.72;94319.31;5088802;28;20190;-49
2023/01/31 06:09:39;;;;;;;9.50;6.80;;;;;;;7.46;72.21;94317.16;5089069;28;20217;-48
2023/01/31 06:12:06;;;;;;;11.23;6.53;;;;;;;7.44;71.78;94320.78;5089690;28;20605;-48
2023/01/31 06:14:33;;;;;;;9.40;6.37;;;;;;;7.43;70.66;94321.72;5088992;28;20190;-48
2023/01/31 06:17:00;;;;;;;9.50;6.80;;;;;;;7.37;69.91;94317.13;5089671;28;20189;-49
2023/01/31 06:19:27;;;;;;;8.87;5.97;;;;;;;7.40;69.16;94320.22;5088958;28;20193;-50
2023/01/31 06:21:53;;;;;;;8.73;6.10;;;;;;;7.39;68.37;94316.09;5089538;28;20668;-49
2023/01/31 06:24:22;;;;;;;8.17;6.30;;;;;;;7.39;67.84;94318.63;5094014;28;20719;-48
2023/01/31 06:26:49;;;;;;;8.73;6.30;;;;;;;7.38;67.44;94324.63;5093745;28;20194;-49
2023/01/31 06:29:15;;;;;;;8.33;6.13;;;;;;;7.38;66.79;94327.16;5091692;28;20205;-49
2023/01/31 06:31:44;;;;;;;7.73;6.13;;;;;;;7.37;66.34;94323.03;5084235;28;20189;-48
2023/01/31 06:34:10;;;;;;;8.70;6.40;;;;;;;7.39;65.82;94322.91;5086574;28;20189;-48
2023/01/31 06:36:37;;;;;;;9.53;6.93;;;;;;;7.43;65.64;94331.91;5089096;28;20580;-48
2023/01/31 06:39:04;;;;;;;11.03;6.50;;;;;;;7.45;65.18;94325.75;5087331;28;20189;-49
2023/01/31 06:41:32;;;;;;;7.77;6.10;;;;;;;7.48;64.83;94324.69;5086958;28;20197;-48
2023/01/31 06:43:59;;;;;;;12.40;6.60;;;;;;;7.48;64.50;94330.56;5087443;28;20719;-49
2023/01/31 06:46:26;;;;;;;9.97;6.23;;;;;;;7.50;64.24;94328.69;5087696;28;20236;-47
2023/01/31 06:48:53;;;;;;;10.77;6.80;;;;;;;7.51;63.99;94327.78;5087812;28;20201;-47
2023/01/31 06:51:20;;;;;;;12.00;7.10;;;;;;;7.53;63.71;94322.56;5087329;28;20247;-48
2023/01/31 06:53:47;;;;;;;10.43;6.87;;;;;;;7.46;63.49;94317.16;5088264;28;20193;-52
2023/01/31 06:56:14;;;;;;;10.43;6.40;;;;;;;7.48;63.32;94325.50;5087969;28;20189;-47
2023/01/31 06:58:43;;;;;;;10.23;7.37;;;;;;;7.57;62.87;94336.63;5087750;28;20208;-47
2023/01/31 07:01:12;;;;;;;8.67;6.83;;;;;;;7.56;62.96;94335.03;5087990;28;20495;-47
2023/01/31 07:03:39;;;;;;;9.30;6.97;;;;;;;7.61;62.74;94337.19;5087765;28;20201;-49
2023/01/31 07:06:07;;;;;;;8.87;6.00;;;;;;;7.64;62.42;94334.38;5087976;28;20281;-48
2023/01/31 07:08:35;;;;;;;9.93;6.70;;;;;;;7.64;62.31;94332.66;5087357;28;20700;-47
2023/01/31 07:11:02;;;;;;;8.10;6.80;;;;;;;7.65;62.16;94339.34;5087843;28;20324;-48
2023/01/31 07:13:30;;;;;;;9.10;7.13;;;;;;;7.63;61.87;94338.66;5087761;28;20193;-47
2023/01/31 07:15:59;;;;;;;9.70;6.87;;;;;;;7.70;61.87;94344.06;5087938;28;20274;-48
2023/01/31 07:18:26;;;;;;;7.47;6.30;;;;;;;7.25;61.68;94268.91;5087229;28;20689;-48
2023/01/31 07:20:53;;;;;;;10.13;7.50;;;;;;;7.41;61.50;94291.31;5091539;28;20209;-48
2023/01/31 07:23:20;;;;;;;10.23;7.20;;;;;;;7.74;61.33;94353.84;5091229;28;20712;-47
2023/01/31 07:25:47;;;;;;;9.30;6.43;;;;;;;7.73;61.58;94348.91;5089468;28;20196;-48
2023/01/31 07:28:14;;;;;;;10.70;7.10;;;;;;;7.74;61.17;94351.28;5091702;28;20297;-47
2023/01/31 07:30:42;;;;;;;10.60;7.03;;;;;;;7.68;61.21;94341.63;5091685;28;20185;-48
2023/01/31 07:33:11;;;;;;;8.93;7.07;;;;;;;7.74;61.03;94353.84;5091774;28;20862;-49
2023/01/31 07:35:38;;;;;;;10.37;7.00;;;;;;;7.75;60.95;94341.91;5091408;28;20201;-47
2023/01/31 07:38:05;;;;;;;7.90;6.20;;;;;;;7.83;60.85;94359.09;5091446;28;20359;-48
2023/01/31 07:40:32;;;;;;;8.97;6.23;;;;;;;7.88;60.73;94351.88;5092129;28;20197;-49
2023/01/31 07:43:00;;;;;;;8.83;6.57;;;;;;;7.82;60.35;94330.28;5089543;28;20731;-47
2023/01/31 07:45:27;;;;;;;8.43;5.67;;;;;;;7.99;60.55;94351.78;5090388;28;20331;-48
2023/01/31 07:47:57;;;;;;;10.73;5.80;;;;;;;8.02;60.22;94364.22;5091970;28;20178;-48
2023/01/31 07:50:27;;;;;;;10.07;6.80;;;;;;;7.85;60.14;94337.66;5091018;28;20609;-47
2023/01/31 07:52:54;;;;;;;7.63;5.87;;;;;;;8.09;60.10;94367.88;5090942;28;20186;-47
2023/01/31 07:55:21;;;;;;;9.37;6.40;;;;;;;8.15;59.95;94366.53;5090589;28;20299;-47
2023/01/31 07:57:48;;;;;;;10.57;6.87;;;;;;;8.17;59.99;94364.69;5090750;28;20221;-51
2023/01/31 08:05:47;;;;;;;9.07;6.27;;;;;;;8.30;59.58;94370.34;5091361;28;20192;-48
2023/01/31 08:08:15;;;;;;;10.17;6.13;;;;;;;8.26;59.55;94357.06;5090998;28;20704;-48
2023/01/31 08:10:42;;;;;;;11.77;6.97;;;;;;;8.38;59.49;94356.97;5090419;28;20194;-48
2023/01/31 08:13:10;;;;;;;8.63;6.37;;;;;;;8.49;59.10;94351.75;5091069;28;20263;-48
2023/01/31 08:15:37;;;;;;;8.37;6.10;;;;;;;8.62;59.11;94361.66;5089945;28;20221;-48
2023/01/31 08:18:04;;;;;;;7.30;6.00;;;;;;;8.76;58.98;94358.72;5090869;28;20860;-47
2023/01/31 08:20:31;;;;;;;9.03;5.90;;;;;;;8.93;58.53;94370.78;5090184;28;20201;-49
2023/01/31 08:23:00;;;;;;;11.03;6.53;;;;;;;9.18;58.17;94366.06;5091202;28;20585;-48
2023/01/31 08:25:29;;;;;;;10.67;7.53;;;;;;;9.42;57.55;94360.50;5090459;28;20204;-48
2023/01/31 08:27:57;;;;;;;8.87;6.23;;;;;;;9.71;57.32;94345.06;5090524;28;20579;-48
2023/01/31 08:30:24;;;;;;;8.57;5.97;;;;;;;10.07;56.83;94345.97;5089800;28;20261;-48
2023/01/31 08:32:51;;;;;;;7.23;6.13;;;;;;;10.43;56.16;94348.63;5090400;28;20205;-49
2023/01/31 08:35:18;;;;;;;7.10;5.13;;;;;;;10.74;55.97;94343.94;5090086;28;20197;-47
2023/01/31 08:37:46;;;;;;;9.67;6.20;;;;;;;10.99;55.70;94344.94;5090247;28;20190;-47
2023/01/31 08:40:15;;;;;;;7.37;5.70;;;;;;;11.18;55.65;94344.75;5090182;28;20193;-47
2023/01/31 08:42:41;;;;;;;8.53;6.00;;;;;;;11.35;55.17;94348.22;5090792;28;20188;-48
2023/01/31 08:45:09;;;;;;;7.23;5.67;;;;;;;11.51;55.08;94338.06;5089743;28;20228;-46
2023/01/31 08:47:37;;;;;;;7.47;6.07;;;;;;;11.64;55.16;94349.66;5090170;28;20569;-48
2023/01/31 08:50:06;;;;;;;10.07;5.97;;;;;;;11.76;54.75;94348.44;5089963;28;20300;-46
2023/01/31 08:52:34;;;;;;;8.30;5.33;;;;;;;11.94;54.75;94350.94;5090412;28;20189;-47
2023/01/31 08:55:01;;;;;;;6.60;5.10;;;;;;;12.08;54.53;94344.44;5089677;28;20193;-49
2023/01/31 08:57:29;;;;;;;6.07;5.23;;;;;;;12.20;54.24;94349.09;5089511;28;20189;-47
2023/01/31 08:59:56;;;;;;;8.37;6.27;;;;;;;12.28;54.16;94343.22;5089765;28;20182;-49
2023/01/31 09:02:23;;;;;;;6.70;5.13;;;;;;;12.35;54.03;94351.06;5089372;28;20542;-49
2023/01/31 09:04:50;;;;;;;6.47;5.07;;;;;;;12.39;54.05;94344.66;5090084;28;20205;-47
2023/01/31 09:07:20;;;;;;;10.20;5.57;;;;;;;12.37;53.76;94338.91;5089959;28;20189;-49
2023/01/31 09:09:47;;;;;;;6.67;5.13;;;;;;;12.38;54.06;94348.19;5089518;28;20717;-48
2023/01/31 09:12:14;;;;;;;6.63;5.80;;;;;;;12.33;53.81;94340.97;5093516;28;20201;-49
2023/01/31 09:14:42;;;;;;;6.73;5.33;;;;;;;12.37;53.78;94347.38;5092394;28;20573;-49
2023/01/31 09:17:10;;;;;;;5.30;4.47;;;;;;;12.39;53.52;94355.75;5090203;28;20288;-50
2023/01/31 09:19:38;;;;;;;5.77;4.80;;;;;;;12.36;53.39;94338.09;5089397;28;20243;-50
2023/01/31 09:22:05;;;;;;;6.63;5.00;;;;;;;12.45;53.22;94349.97;5089757;28;20557;-48
2023/01/31 09:24:32;;;;;;;6.37;4.83;;;;;;;12.50;53.11;94350.31;5089860;28;20189;-48
2023/01/31 09:26:59;;;;;;;6.87;5.47;;;;;;;12.52;53.06;94340.69;5089273;28;20208;-49
2023/01/31 09:29:27;;;;;;;5.83;4.57;;;;;;;12.53;52.97;94344.88;5088904;28;20713;-48
2023/01/31 09:31:55;;;;;;;8.57;5.10;;;;;;;12.50;52.84;94332.34;5088831;28;20285;-47
2023/01/31 09:34:22;;;;;;;6.90;5.17;;;;;;;12.58;52.77;94341.03;5089028;28;20203;-48
2023/01/31 09:36:49;;;;;;;5.03;4.37;;;;;;;12.62;52.57;94340.56;5088769;28;20198;-48
2023/01/31 09:39:16;;;;;;;6.53;5.17;;;;;;;12.67;52.40;94333.16;5088889;28;20201;-49
2023/01/31 09:41:46;;;;;;;6.20;4.70;;;;;;;12.64;52.45;94320.66;5088166;28;20193;-47
2023/01/31 09:44:17;;;;;;;5.63;4.80;;;;;;;12.76;52.23;94332.22;5088846;28;20197;-48
2023/01/31 09:46:49;;;;;;;5.83;5.23;;;;;;;12.82;52.28;94330.75;5090408;28;20204;-53
2023/01/31 09:49:22;;;;;;;5.60;4.30;;;;;;;12.88;52.05;94316.50;5087025;28;20582;-48
2023/01/31 09:51:55;;;;;;;7.73;4.43;;;;;;;12.91;51.83;94319.56;5087590;28;20196;-47
2023/01/31 09:54:28;;;;;;;5.03;4.37;;;;;;;12.91;51.83;94304.16;5089192;28;20202;-47
2023/01/31 09:57:04;;;;;;;4.40;4.00;;;;;;;12.91;51.65;94311.03;5088104;28;20189;-48
2023/01/31 09:59:40;;;;;;;5.13;4.10;;;;;;;12.70;51.33;94288.44;5088960;28;20197;-48
2023/01/31 10:02:28;;;;;;;4.97;4.40;;;;;;;12.85;51.45;94306.56;5090176;28;20189;-48
2023/01/31 10:05:10;;;;;;;5.53;4.20;;;;;;;12.90;51.27;94304.31;5089415;28;20189;-48
2023/01/31 10:07:45;;;;;;;5.17;4.30;;;;;;;12.97;51.26;94313.78;5090328;28;20181;-59
2023/01/31 10:10:18;;;;;;;4.63;4.10;;;;;;;12.98;51.24;94307.66;5091482;28;20213;-48
2023/01/31 10:12:49;;;;;;;4.87;3.97;;;;;;;12.95;51.15;94297.75;5087697;28;20288;-51
2023/01/31 10:15:26;;;;;;;4.83;4.30;;;;;;;12.92;51.09;94292.94;5091223;28;20275;-49
2023/01/31 10:17:59;;;;;;;5.13;4.30;;;;;;;12.95;50.74;94286.66;5090169;28;20182;-48
2023/01/31 10:20:35;;;;;;;4.43;3.93;;;;;;;12.96;50.76;94286.50;5089507;28;20269;-50
2023/01/31 10:23:07;;;;;;;5.17;4.00;;;;;;;12.94;50.74;94279.91;5087613;28;20200;-50
2023/01/31 10:25:38;;;;;;;4.00;3.50;;;;;;;12.89;50.73;94285.53;5089455;28;20223;-49
2023/01/31 10:28:11;;;;;;;4.67;4.00;;;;;;;12.85;50.56;94271.44;5090541;28;20201;-50
2023/01/31 10:30:45;;;;;;;4.37;3.97;;;;;;;12.90;50.48;94270.94;5089576;28;20225;-49
2023/01/31 10:33:24;;;;;;;4.77;3.90;;;;;;;12.90;50.47;94281.22;5090235;28;20182;-51
2023/01/31 10:35:55;;;;;;;4.37;3.97;;;;;;;12.86;50.58;94279.94;5089998;28;20197;-49
2023/01/31 10:38:27;;;;;;;4.30;3.57;;;;;;;12.76;50.58;94275.75;5089884;28;20193;-49
2023/01/31 10:40:59;;;;;;;4.07;3.63;;;;;;;12.69;50.53;94267.09;5089103;28;20205;-50
2023/01/31 10:43:37;;;;;;;4.93;3.63;;;;;;;12.61;50.52;94269.69;5088153;28;20197;-50
2023/01/31 10:46:10;;;;;;;3.70;3.40;;;;;;;12.52;50.89;94278.31;5085018;28;20221;-49
2023/01/31 10:48:37;;;;;;;3.60;3.30;;;;;;;12.46;50.68;94273.84;5087860;28;20204;-52
2023/01/31 10:51:15;;;;;;;3.63;3.33;;;;;;;12.58;50.49;94269.22;5089730;28;20243;-50
2023/01/31 10:53:59;;;;;;;3.73;3.43;;;;;;;12.60;50.69;94272.41;5092982;28;20198;-48
2023/01/31 10:56:31;;;;;;;4.87;3.90;;;;;;;12.53;50.71;94280.75;5091281;28;20197;-51
2023/01/31 10:58:59;;;;;;;4.23;3.60;;;;;;;12.51;50.45;94281.84;5091658;28;20314;-48
2023/01/31 11:01:26;;;;;;;3.60;3.27;;;;;;;12.57;50.60;94288.13;5091951;28;20194;-49
2023/01/31 11:03:55;;;;;;;5.20;3.40;;;;;;;12.59;50.62;94292.13;5091941;28;20250;-48
2023/01/31 11:06:24;;;;;;;3.77;3.47;;;;;;;12.59;50.71;94292.13;5092186;28;20215;-47
2023/01/31 11:08:55;;;;;;;4.53;3.47;;;;;;;12.55;50.66;94289.06;5091790;28;20359;-50
2023/01/31 11:11:24;;;;;;;3.90;3.60;;;;;;;12.55;50.79;94285.69;5090926;28;20228;-48
2023/01/31 11:13:59;;;;;;;3.60;3.27;;;;;;;12.53;50.80;94285.06;5095154;28;20201;-48
2023/01/31 11:16:29;;;;;;;4.13;3.40;;;;;;;12.54;50.58;94291.81;5091616;28;20193;-49
2023/01/31 11:18:57;;;;;;;3.70;3.40;;;;;;;12.42;50.63;94275.91;5091213;28;20197;-48
2023/01/31 11:21:29;;;;;;;4.53;3.63;;;;;;;12.30;50.62;94264.34;5091724;28;20182;-49
2023/01/31 11:24:02;;;;;;;3.80;3.30;;;;;;;12.49;50.82;94296.63;5088549;28;20229;-49
2023/01/31 11:26:32;;;;;;;4.00;3.20;;;;;;;12.46;50.79;94291.78;5089345;28;20225;-50
2023/01/31 11:28:59;;;;;;;3.83;3.47;;;;;;;12.46;50.64;94294.34;5091260;28;20213;-51
2023/01/31 11:31:31;;;;;;;3.57;3.27;;;;;;;12.45;50.71;94295.31;5090820;28;20222;-48
2023/01/31 11:33:59;;;;;;;4.57;3.50;;;;;;;12.43;50.70;94298.03;5090839;28;20232;-48
2023/01/31 11:36:32;;;;;;;3.60;3.27;;;;;;;12.43;50.86;94297.22;5091397;28;20186;-48
2023/01/31 11:38:59;;;;;;;3.87;3.33;;;;;;;12.39;50.64;94301.06;5091574;28;20198;-49
2023/01/31 11:41:33;;;;;;;4.90;3.10;;;;;;;12.30;50.86;94301.09;5091108;28;20201;-49
2023/01/31 11:44:08;;;;;;;3.40;3.10;;;;;;;12.19;50.97;94295.44;5089183;28;20710;-48
2023/01/31 11:46:46;;;;;;;3.40;3.10;;;;;;;12.12;51.20;94305.50;5091915;28;20232;-49
2023/01/31 11:49:18;;;;;;;3.73;3.37;;;;;;;11.97;51.28;94296.84;5091404;28;20197;-47
2023/01/31 11:51:48;;;;;;;3.87;3.03;;;;;;;11.85;51.63;94300.63;5091132;28;20185;-48
2023/01/31 11:54:20;;;;;;;4.03;3.63;;;;;;;11.71;51.75;94309.69;5091039;28;20921;-49
2023/01/31 11:56:47;;;;;;;4.10;3.70;;;;;;;11.50;51.81;94289.56;5090639;28;20190;-48
2023/01/31 11:59:20;;;;;;;4.30;3.33;;;;;;;11.50;52.04;94299.81;5090879;28;20197;-51